Aérodrome :
LOGIN :

S'inscrire | Disclaimer

   EN    FR    IT 

 










Légende :    VFR   VFR Marginal   IFR   IFR Intensif   IFR Très Intensif
Visi : 
Plafond : 
>= 8 km
>= 3000ft
5 à 8 km
1000 à 3000 ft
1500m à 5 km
500 à 1000 ft
800 à 1500m
200 à 500 ft
< 800m
< 200 ft
Symboles :   Orages  Brouillard  Fortes neiges  Fortes précipitations  Vent > 20 kt
SIGMETs :   Divers  Orages  Givrage  Turbulence  Onde Orograph.  Cendres Volcan.






- Altitude de l'aérodrome : 10 ft
- Code IATA : MOL


ENML - Molde

DERNIER METAR :
  • 201120Z 03005KT 010V070 CAVOK 01/M01 Q1020

METARs EXPIRÉS :
  • 201050Z 05006KT 020V090 CAVOK 01/M01 Q1020
  • 201020Z 04007KT CAVOK 01/M01 Q1020
  • 200950Z 03008KT CAVOK 01/M01 Q1020
  • 200920Z 03007KT CAVOK 00/M01 Q1020
  • 200850Z 04008KT CAVOK M00/M02 Q1019

TAF TAF ENML
Valide du 20 à 12h jusqu'au 20 à 21h UTC


201100Z 2012/2021 03006KT CAVOK



MET'MAP, la Météo Aéronautique d'un coup d'oeil ! - Copyright ORBIFLY Décembre 2007 - Disclaimer

ORBIFLY MET'MAP TEAM :

Programmation & Développement : Alexandra Zaïnal
Conception & Développement : Baudouin d'Aumeries
Co-Programmation & Développement : Marc-Olivier Méhu
Soutien technique & logistique : Manuel Goepfert

Contact : metmap@orbifly.com




SOURCES & CREDITS :

   NOAA